sensor_id;sensor_type;location;lat;lon;timestamp;pressure;altitude;pressure_sealevel;temperature;humidity
45523;BME280;31254;51.680;5.394;2022-12-05T00:04:03;101837.19;;;2.95;88.09
45523;BME280;31254;51.680;5.394;2022-12-05T00:06:30;101826.56;;;2.91;87.93
45523;BME280;31254;51.680;5.394;2022-12-05T00:08:58;101830.00;;;2.95;87.50
45523;BME280;31254;51.680;5.394;2022-12-05T00:11:28;101831.50;;;3.01;87.62
45523;BME280;31254;51.680;5.394;2022-12-05T00:13:59;101844.91;;;3.02;87.12
45523;BME280;31254;51.680;5.394;2022-12-05T00:16:30;101845.69;;;3.04;87.58
45523;BME280;31254;51.680;5.394;2022-12-05T00:19:00;101835.00;;;3.03;88.09
45523;BME280;31254;51.680;5.394;2022-12-05T00:21:30;101839.28;;;3.07;87.45
45523;BME280;31254;51.680;5.394;2022-12-05T00:23:59;101833.13;;;3.05;87.29
45523;BME280;31254;51.680;5.394;2022-12-05T00:26:26;101832.06;;;3.07;88.16
45523;BME280;31254;51.680;5.394;2022-12-05T00:28:53;101827.66;;;3.06;88.36
45523;BME280;31254;51.680;5.394;2022-12-05T00:31:25;101819.47;;;3.08;87.77
45523;BME280;31254;51.680;5.394;2022-12-05T00:33:53;101834.63;;;3.10;88.54
45523;BME280;31254;51.680;5.394;2022-12-05T00:36:23;101823.75;;;3.12;88.52
45523;BME280;31254;51.680;5.394;2022-12-05T00:38:51;101821.84;;;3.14;87.71
45523;BME280;31254;51.680;5.394;2022-12-05T00:41:23;101813.03;;;3.10;87.59
45523;BME280;31254;51.680;5.394;2022-12-05T00:43:50;101818.13;;;3.17;88.24
45523;BME280;31254;51.680;5.394;2022-12-05T00:46:23;101786.72;;;2.98;87.37
45523;BME280;31254;51.680;5.394;2022-12-05T00:48:54;101804.88;;;3.12;87.66
45523;BME280;31254;51.680;5.394;2022-12-05T00:51:28;101811.72;;;3.19;88.00
45523;BME280;31254;51.680;5.394;2022-12-05T00:54:00;101822.31;;;3.22;88.46
45523;BME280;31254;51.680;5.394;2022-12-05T00:56:28;101817.75;;;3.24;88.12
45523;BME280;31254;51.680;5.394;2022-12-05T00:58:56;101822.25;;;3.24;87.48
45523;BME280;31254;51.680;5.394;2022-12-05T01:01:28;101818.69;;;3.23;88.16
45523;BME280;31254;51.680;5.394;2022-12-05T01:03:56;101823.06;;;3.26;87.97
45523;BME280;31254;51.680;5.394;2022-12-05T01:06:25;101815.91;;;3.25;88.38
45523;BME280;31254;51.680;5.394;2022-12-05T01:08:53;101809.72;;;3.23;88.34
45523;BME280;31254;51.680;5.394;2022-12-05T01:11:21;101820.22;;;3.29;87.78
45523;BME280;31254;51.680;5.394;2022-12-05T01:13:49;101802.56;;;3.22;88.24
45523;BME280;31254;51.680;5.394;2022-12-05T01:16:27;101815.59;;;3.31;87.84
45523;BME280;31254;51.680;5.394;2022-12-05T01:18:56;101825.44;;;3.32;87.97
45523;BME280;31254;51.680;5.394;2022-12-05T01:21:23;101819.31;;;3.28;88.07
45523;BME280;31254;51.680;5.394;2022-12-05T01:23:52;101824.63;;;3.30;88.10
45523;BME280;31254;51.680;5.394;2022-12-05T01:26:20;101830.72;;;3.34;87.80
45523;BME280;31254;51.680;5.394;2022-12-05T01:28:48;101823.06;;;3.26;87.97
45523;BME280;31254;51.680;5.394;2022-12-05T01:31:31;101826.16;;;3.36;87.94
45523;BME280;31254;51.680;5.394;2022-12-05T01:34:00;101835.03;;;3.38;88.34
45523;BME280;31254;51.680;5.394;2022-12-05T01:36:27;101818.53;;;3.26;88.60
45523;BME280;31254;51.680;5.394;2022-12-05T01:38:55;101842.50;;;3.33;88.79
45523;BME280;31254;51.680;5.394;2022-12-05T01:41:26;101823.22;;;3.23;88.21
45523;BME280;31254;51.680;5.394;2022-12-05T01:44:06;101859.22;;;3.39;88.03
45523;BME280;31254;51.680;5.394;2022-12-05T01:46:36;101845.75;;;3.39;87.99
45523;BME280;31254;51.680;5.394;2022-12-05T01:49:12;101825.75;;;3.26;88.84
45523;BME280;31254;51.680;5.394;2022-12-05T01:51:42;101848.38;;;3.41;88.74
45523;BME280;31254;51.680;5.394;2022-12-05T01:54:10;101852.75;;;3.43;87.68
45523;BME280;31254;51.680;5.394;2022-12-05T01:56:43;101837.81;;;3.36;88.60
45523;BME280;31254;51.680;5.394;2022-12-05T01:59:12;101847.50;;;3.40;88.31
45523;BME280;31254;51.680;5.394;2022-12-05T02:01:39;101851.84;;;3.43;88.35
45523;BME280;31254;51.680;5.394;2022-12-05T02:04:07;101856.31;;;3.44;88.22
45523;BME280;31254;51.680;5.394;2022-12-05T02:06:35;101849.78;;;3.48;88.13
45523;BME280;31254;51.680;5.394;2022-12-05T02:09:05;101846.38;;;3.44;88.14
45523;BME280;31254;51.680;5.394;2022-12-05T02:11:48;101858.69;;;3.50;88.57
45523;BME280;31254;51.680;5.394;2022-12-05T02:14:45;101854.78;;;3.56;88.03
45523;BME280;31254;51.680;5.394;2022-12-05T02:29:23;101854.78;;;3.56;88.17
45523;BME280;31254;51.680;5.394;2022-12-05T02:32:06;101839.88;;;3.48;88.90
45523;BME280;31254;51.680;5.394;2022-12-05T02:37:39;101829.31;;;3.44;88.77
45523;BME280;31254;51.680;5.394;2022-12-05T02:40:23;101844.94;;;3.55;88.61
45523;BME280;31254;51.680;5.394;2022-12-05T02:43:09;101847.63;;;3.55;89.01
45523;BME280;31254;51.680;5.394;2022-12-05T02:45:40;101840.44;;;3.55;88.10
45523;BME280;31254;51.680;5.394;2022-12-05T02:48:13;101852.88;;;3.58;88.82
45523;BME280;31254;51.680;5.394;2022-12-05T02:50:43;101841.44;;;3.53;88.65
45523;BME280;31254;51.680;5.394;2022-12-05T02:53:11;101847.47;;;3.58;89.25
45523;BME280;31254;51.680;5.394;2022-12-05T02:55:40;101856.47;;;3.58;89.25
45523;BME280;31254;51.680;5.394;2022-12-05T02:58:18;101857.31;;;3.59;88.84
45523;BME280;31254;51.680;5.394;2022-12-05T03:00:48;101852.94;;;3.56;88.54
45523;BME280;31254;51.680;5.394;2022-12-05T03:03:18;101856.47;;;3.58;88.96
45523;BME280;31254;51.680;5.394;2022-12-05T03:06:04;101860.09;;;3.57;88.44
45523;BME280;31254;51.680;5.394;2022-12-05T03:08:57;101854.72;;;3.57;88.98
45523;BME280;31254;51.680;5.394;2022-12-05T03:11:35;101859.25;;;3.57;89.23
45523;BME280;31254;51.680;5.394;2022-12-05T03:14:06;101855.50;;;3.59;89.00
45523;BME280;31254;51.680;5.394;2022-12-05T03:16:44;101857.47;;;3.56;88.96
45523;BME280;31254;51.680;5.394;2022-12-05T03:19:26;101861.03;;;3.56;89.33
45523;BME280;31254;51.680;5.394;2022-12-05T03:22:01;101845.97;;;3.52;89.02
45523;BME280;31254;51.680;5.394;2022-12-05T03:24:29;101849.47;;;3.54;89.48
45523;BME280;31254;51.680;5.394;2022-12-05T03:27:21;101853.75;;;3.58;89.00
45523;BME280;31254;51.680;5.394;2022-12-05T03:30:06;101852.88;;;3.58;89.24
45523;BME280;31254;51.680;5.394;2022-12-05T03:32:48;101847.47;;;3.58;89.13
45523;BME280;31254;51.680;5.394;2022-12-05T03:35:35;101848.28;;;3.60;89.06
45523;BME280;31254;51.680;5.394;2022-12-05T03:40:47;101854.53;;;3.60;89.29
45523;BME280;31254;51.680;5.394;2022-12-05T03:46:11;101848.28;;;3.60;89.82
45523;BME280;31254;51.680;5.394;2022-12-05T03:49:00;101840.66;;;3.51;89.41
45523;BME280;31254;51.680;5.394;2022-12-05T03:51:36;101848.53;;;3.55;89.63
45523;BME280;31254;51.680;5.394;2022-12-05T03:56:40;101853.91;;;3.55;89.82
45523;BME280;31254;51.680;5.394;2022-12-05T03:59:15;101859.25;;;3.57;90.37
45523;BME280;31254;51.680;5.394;2022-12-05T04:01:47;101836.28;;;3.48;90.12
45523;BME280;31254;51.680;5.394;2022-12-05T04:04:21;101853.84;;;3.57;90.04
45523;BME280;31254;51.680;5.394;2022-12-05T04:06:53;101836.28;;;3.48;90.34
45523;BME280;31254;51.680;5.394;2022-12-05T04:09:32;101853.84;;;3.57;90.54
45523;BME280;31254;51.680;5.394;2022-12-05T04:12:05;101846.84;;;3.53;90.27
45523;BME280;31254;51.680;5.394;2022-12-05T04:14:42;101849.69;;;3.50;90.46
45523;BME280;31254;51.680;5.394;2022-12-05T04:22:35;101857.72;;;3.51;90.56
45523;BME280;31254;51.680;5.394;2022-12-05T04:25:05;101868.91;;;3.61;90.62
45523;BME280;31254;51.680;5.394;2022-12-05T04:33:46;101864.41;;;3.61;90.73
45523;BME280;31254;51.680;5.394;2022-12-05T04:36:26;101864.47;;;3.60;90.43
45523;BME280;31254;51.680;5.394;2022-12-05T04:39:15;101871.44;;;3.64;90.60
45523;BME280;31254;51.680;5.394;2022-12-05T04:41:52;101859.25;;;3.57;91.02
45523;BME280;31254;51.680;5.394;2022-12-05T04:44:26;101883.13;;;3.64;90.58
45523;BME280;31254;51.680;5.394;2022-12-05T04:46:59;101871.53;;;3.62;90.62
45523;BME280;31254;51.680;5.394;2022-12-05T04:49:29;101861.03;;;3.56;90.71
45523;BME280;31254;51.680;5.394;2022-12-05T04:52:02;101875.75;;;3.68;90.64
45523;BME280;31254;51.680;5.394;2022-12-05T04:54:48;101873.03;;;3.68;90.35
45523;BME280;31254;51.680;5.394;2022-12-05T04:57:32;101875.75;;;3.68;91.00
45523;BME280;31254;51.680;5.394;2022-12-05T05:00:02;101874.69;;;3.71;90.09
45523;BME280;31254;51.680;5.394;2022-12-05T05:02:46;101879.16;;;3.72;90.92
45523;BME280;31254;51.680;5.394;2022-12-05T05:05:17;101880.91;;;3.73;90.88
45523;BME280;31254;51.680;5.394;2022-12-05T05:07:55;101856.16;;;3.64;90.96
45523;BME280;31254;51.680;5.394;2022-12-05T05:10:30;101870.97;;;3.73;91.21
45523;BME280;31254;51.680;5.394;2022-12-05T05:12:58;101867.50;;;3.71;90.79
45523;BME280;31254;51.680;5.394;2022-12-05T05:15:24;101881.69;;;3.75;91.87
45523;BME280;31254;51.680;5.394;2022-12-05T05:17:51;101883.44;;;3.76;91.46
45523;BME280;31254;51.680;5.394;2022-12-05T05:20:20;101871.06;;;3.72;91.20
45523;BME280;31254;51.680;5.394;2022-12-05T05:22:51;101870.09;;;3.73;91.52
45523;BME280;31254;51.680;5.394;2022-12-05T05:25:20;101866.13;;;3.80;91.47
45523;BME280;31254;51.680;5.394;2022-12-05T05:27:51;101876.91;;;3.80;90.96
45523;BME280;31254;51.680;5.394;2022-12-05T05:30:22;101882.31;;;3.80;91.89
45523;BME280;31254;51.680;5.394;2022-12-05T05:32:49;101874.84;;;3.85;90.86
45523;BME280;31254;51.680;5.394;2022-12-05T05:35:16;101871.97;;;3.88;91.90
45523;BME280;31254;51.680;5.394;2022-12-05T05:37:42;101876.59;;;3.86;92.17
45523;BME280;31254;51.680;5.394;2022-12-05T05:40:11;101869.94;;;3.76;91.81
45523;BME280;31254;51.680;5.394;2022-12-05T05:42:44;101875.81;;;3.84;91.98
45523;BME280;31254;51.680;5.394;2022-12-05T05:45:13;101880.25;;;3.85;92.03
45523;BME280;31254;51.680;5.394;2022-12-05T05:47:40;101877.94;;;3.77;91.81
45523;BME280;31254;51.680;5.394;2022-12-05T05:50:08;101890.00;;;3.88;92.21
45523;BME280;31254;51.680;5.394;2022-12-05T05:52:36;101874.84;;;3.85;91.64
45523;BME280;31254;51.680;5.394;2022-12-05T05:55:04;101871.28;;;3.84;92.23
45523;BME280;31254;51.680;5.394;2022-12-05T05:57:33;101868.56;;;3.84;92.23
45523;BME280;31254;51.680;5.394;2022-12-05T06:00:00;101883.41;;;3.93;92.33
45523;BME280;31254;51.680;5.394;2022-12-05T06:02:33;101873.91;;;3.86;91.65
45523;BME280;31254;51.680;5.394;2022-12-05T06:05:01;101877.22;;;3.91;91.66
45523;BME280;31254;51.680;5.394;2022-12-05T06:07:28;101886.03;;;3.95;92.10
45523;BME280;31254;51.680;5.394;2022-12-05T06:09:55;101876.34;;;3.91;91.53
45523;BME280;31254;51.680;5.394;2022-12-05T06:12:22;101876.19;;;3.94;91.92
45523;BME280;31254;51.680;5.394;2022-12-05T06:14:49;101878.91;;;3.94;91.91
45523;BME280;31254;51.680;5.394;2022-12-05T06:17:16;101867.53;;;3.87;92.40
45523;BME280;31254;51.680;5.394;2022-12-05T06:19:45;101883.25;;;3.96;92.37
45523;BME280;31254;51.680;5.394;2022-12-05T06:22:12;101890.16;;;4.02;92.27
45523;BME280;31254;51.680;5.394;2022-12-05T06:24:41;101888.63;;;3.96;91.71
45523;BME280;31254;51.680;5.394;2022-12-05T06:27:07;101873.50;;;3.94;92.51
45523;BME280;31254;51.680;5.394;2022-12-05T06:29:34;101886.03;;;3.95;92.17
45523;BME280;31254;51.680;5.394;2022-12-05T06:32:03;101900.88;;;4.03;92.51
45523;BME280;31254;51.680;5.394;2022-12-05T06:34:30;101900.72;;;4.07;92.39
45523;BME280;31254;51.680;5.394;2022-12-05T06:37:00;101888.47;;;3.99;92.47
45523;BME280;31254;51.680;5.394;2022-12-05T06:39:29;101898.00;;;4.07;92.28
45523;BME280;31254;51.680;5.394;2022-12-05T06:41:56;101894.50;;;4.05;92.26
45523;BME280;31254;51.680;5.394;2022-12-05T06:44:23;101891.81;;;4.05;92.64
45523;BME280;31254;51.680;5.394;2022-12-05T06:46:52;101894.59;;;4.03;92.54
45523;BME280;31254;51.680;5.394;2022-12-05T06:49:20;101907.53;;;4.14;92.50
45523;BME280;31254;51.680;5.394;2022-12-05T06:51:57;101902.13;;;4.14;92.91
45523;BME280;31254;51.680;5.394;2022-12-05T06:54:26;101897.81;;;4.10;92.66
45523;BME280;31254;51.680;5.394;2022-12-05T06:56:53;101911.91;;;4.16;93.32
45523;BME280;31254;51.680;5.394;2022-12-05T06:59:19;101914.53;;;4.18;92.65
45523;BME280;31254;51.680;5.394;2022-12-05T07:01:46;101901.41;;;4.10;92.53
45523;BME280;31254;51.680;5.394;2022-12-05T07:04:21;101914.53;;;4.18;93.20
45523;BME280;31254;51.680;5.394;2022-12-05T07:06:52;101914.41;;;4.19;93.11
45523;BME280;31254;51.680;5.394;2022-12-05T07:09:22;101902.97;;;4.14;92.61
45523;BME280;31254;51.680;5.394;2022-12-05T07:12:14;101904.66;;;4.17;92.80
45523;BME280;31254;51.680;5.394;2022-12-05T07:14:41;101921.41;;;4.24;93.04
45523;BME280;31254;51.680;5.394;2022-12-05T07:17:15;101881.16;;;4.01;93.19
45523;BME280;31254;51.680;5.394;2022-12-05T07:19:41;101919.56;;;4.24;92.59
45523;BME280;31254;51.680;5.394;2022-12-05T07:22:08;101903.88;;;4.15;92.89
45523;BME280;31254;51.680;5.394;2022-12-05T07:24:41;101919.66;;;4.22;92.88
45523;BME280;31254;51.680;5.394;2022-12-05T07:27:08;101924.19;;;4.22;92.90
45523;BME280;31254;51.680;5.394;2022-12-05T07:29:35;101923.06;;;4.26;93.05
45523;BME280;31254;51.680;5.394;2022-12-05T07:32:01;101922.25;;;4.24;92.80
45523;BME280;31254;51.680;5.394;2022-12-05T07:34:28;101924.09;;;4.24;93.36
45523;BME280;31254;51.680;5.394;2022-12-05T07:36:55;101926.88;;;4.22;93.63
45523;BME280;31254;51.680;5.394;2022-12-05T07:39:21;101929.66;;;4.20;93.57
45523;BME280;31254;51.680;5.394;2022-12-05T07:41:48;101939.28;;;4.26;93.17
45523;BME280;31254;51.680;5.394;2022-12-05T07:44:15;101929.50;;;4.24;93.28
45523;BME280;31254;51.680;5.394;2022-12-05T07:46:41;101939.22;;;4.28;93.37
45523;BME280;31254;51.680;5.394;2022-12-05T07:49:10;101942.59;;;4.31;93.51
45523;BME280;31254;51.680;5.394;2022-12-05T07:51:37;101944.34;;;4.32;93.77
45523;BME280;31254;51.680;5.394;2022-12-05T07:54:04;101940.00;;;4.30;93.14
45523;BME280;31254;51.680;5.394;2022-12-05T07:56:32;101934.59;;;4.30;93.02
45523;BME280;31254;51.680;5.394;2022-12-05T07:58:59;101939.28;;;4.26;93.30
45523;BME280;31254;51.680;5.394;2022-12-05T08:01:28;101943.22;;;4.36;93.14
45523;BME280;31254;51.680;5.394;2022-12-05T08:03:57;101953.09;;;4.37;92.94
45523;BME280;31254;51.680;5.394;2022-12-05T08:06:26;101953.00;;;4.39;93.92
45523;BME280;31254;51.680;5.394;2022-12-05T08:08:54;101959.97;;;4.43;93.16
45523;BME280;31254;51.680;5.394;2022-12-05T08:11:32;101955.50;;;4.42;93.72
45523;BME280;31254;51.680;5.394;2022-12-05T08:14:03;101965.31;;;4.45;93.08
45523;BME280;31254;51.680;5.394;2022-12-05T08:16:31;101965.13;;;4.48;93.26
45523;BME280;31254;51.680;5.394;2022-12-05T08:19:02;101968.63;;;4.50;93.81
45523;BME280;31254;51.680;5.394;2022-12-05T08:21:29;101980.31;;;4.50;93.19
45523;BME280;31254;51.680;5.394;2022-12-05T08:23:56;101962.44;;;4.48;92.90
45523;BME280;31254;51.680;5.394;2022-12-05T08:26:25;101974.72;;;4.53;93.09
45523;BME280;31254;51.680;5.394;2022-12-05T08:28:55;101970.22;;;4.54;93.33
45523;BME280;31254;51.680;5.394;2022-12-05T08:31:23;101976.41;;;4.56;93.01
45523;BME280;31254;51.680;5.394;2022-12-05T08:33:52;101972.09;;;4.52;93.53
45523;BME280;31254;51.680;5.394;2022-12-05T08:36:28;101980.78;;;4.58;93.09
45523;BME280;31254;51.680;5.394;2022-12-05T08:39:03;101975.47;;;4.57;93.49
45523;BME280;31254;51.680;5.394;2022-12-05T08:41:32;101983.41;;;4.60;93.45
45523;BME280;31254;51.680;5.394;2022-12-05T08:44:02;101985.13;;;4.61;93.10
45523;BME280;31254;51.680;5.394;2022-12-05T08:46:34;101983.31;;;4.62;93.56
45523;BME280;31254;51.680;5.394;2022-12-05T08:49:02;101988.81;;;4.60;93.12
45523;BME280;31254;51.680;5.394;2022-12-05T08:51:29;101985.22;;;4.60;93.30
45523;BME280;31254;51.680;5.394;2022-12-05T08:53:56;101981.88;;;4.54;93.85
45523;BME280;31254;51.680;5.394;2022-12-05T08:56:23;101970.47;;;4.49;93.96
45523;BME280;31254;51.680;5.394;2022-12-05T08:58:53;101987.81;;;4.61;93.35
45523;BME280;31254;51.680;5.394;2022-12-05T09:01:30;101989.91;;;4.56;93.64
45523;BME280;31254;51.680;5.394;2022-12-05T09:03:58;101995.06;;;4.61;93.71
45523;BME280;31254;51.680;5.394;2022-12-05T09:06:33;101987.06;;;4.59;93.33
45523;BME280;31254;51.680;5.394;2022-12-05T09:09:05;101998.81;;;4.58;93.79
45523;BME280;31254;51.680;5.394;2022-12-05T09:11:35;101999.69;;;4.58;93.27
45523;BME280;31254;51.680;5.394;2022-12-05T09:14:04;101992.69;;;4.54;93.40
45523;BME280;31254;51.680;5.394;2022-12-05T09:16:33;102001.59;;;4.56;93.87
45523;BME280;31254;51.680;5.394;2022-12-05T09:19:04;102005.19;;;4.57;94.07
45523;BME280;31254;51.680;5.394;2022-12-05T09:21:31;101995.66;;;4.50;93.61
45523;BME280;31254;51.680;5.394;2022-12-05T09:24:00;102014.16;;;4.57;93.76
45523;BME280;31254;51.680;5.394;2022-12-05T09:26:28;102013.22;;;4.58;93.74
45523;BME280;31254;51.680;5.394;2022-12-05T09:28:55;102014.25;;;4.56;93.46
45523;BME280;31254;51.680;5.394;2022-12-05T09:31:23;102006.47;;;4.50;93.68
45523;BME280;31254;51.680;5.394;2022-12-05T09:33:52;102004.53;;;4.52;93.69
45523;BME280;31254;51.680;5.394;2022-12-05T09:36:25;102018.53;;;4.60;93.68
45523;BME280;31254;51.680;5.394;2022-12-05T09:38:53;102024.03;;;4.58;94.14
45523;BME280;31254;51.680;5.394;2022-12-05T09:47:31;102024.56;;;4.65;93.66
45523;BME280;31254;51.680;5.394;2022-12-05T09:58:04;102023.66;;;4.65;93.89
45523;BME280;31254;51.680;5.394;2022-12-05T10:00:37;102023.50;;;4.68;93.78
45523;BME280;31254;51.680;5.394;2022-12-05T10:03:28;102024.31;;;4.70;94.29
45523;BME280;31254;51.680;5.394;2022-12-05T10:08:57;102023.44;;;4.69;94.42
45523;BME280;31254;51.680;5.394;2022-12-05T10:11:35;102033.28;;;4.70;94.15
45523;BME280;31254;51.680;5.394;2022-12-05T10:14:23;102018.84;;;4.71;94.26
45523;BME280;31254;51.680;5.394;2022-12-05T10:17:34;102019.00;;;4.68;94.13
45523;BME280;31254;51.680;5.394;2022-12-05T10:20:14;102029.66;;;4.71;93.71
45523;BME280;31254;51.680;5.394;2022-12-05T10:25:13;102036.00;;;4.70;93.93
45523;BME280;31254;51.680;5.394;2022-12-05T10:27:44;102020.63;;;4.71;93.57
45523;BME280;31254;51.680;5.394;2022-12-05T10:30:16;102021.34;;;4.74;94.26
45523;BME280;31254;51.680;5.394;2022-12-05T10:33:02;102027.56;;;4.76;94.35
45523;BME280;31254;51.680;5.394;2022-12-05T10:35:37;102016.91;;;4.73;93.40
45523;BME280;31254;51.680;5.394;2022-12-05T10:38:26;102030.25;;;4.76;94.30
45523;BME280;31254;51.680;5.394;2022-12-05T10:41:00;102027.03;;;4.70;94.40
45523;BME280;31254;51.680;5.394;2022-12-05T10:43:31;102030.75;;;4.67;94.14
45523;BME280;31254;51.680;5.394;2022-12-05T10:45:59;102027.28;;;4.65;94.45
45523;BME280;31254;51.680;5.394;2022-12-05T10:48:28;102032.50;;;4.68;94.31
45523;BME280;31254;51.680;5.394;2022-12-05T10:50:57;102012.06;;;4.63;94.53
45523;BME280;31254;51.680;5.394;2022-12-05T10:53:48;102021.34;;;4.74;94.70
45523;BME280;31254;51.680;5.394;2022-12-05T10:57:18;102018.56;;;4.76;94.64
45523;BME280;31254;51.680;5.394;2022-12-05T10:59:45;102023.72;;;4.81;94.43
45523;BME280;31254;51.680;5.394;2022-12-05T11:04:49;102009.88;;;4.87;94.11
45523;BME280;31254;51.680;5.394;2022-12-05T11:07:48;102014.84;;;4.94;94.06
45523;BME280;31254;51.680;5.394;2022-12-05T11:10:57;102015.47;;;5.00;94.41
45523;BME280;31254;51.680;5.394;2022-12-05T11:13:34;102013.88;;;4.95;93.97
45523;BME280;31254;51.680;5.394;2022-12-05T11:16:04;102014.53;;;5.01;94.04
45523;BME280;31254;51.680;5.394;2022-12-05T11:18:32;102006.31;;;5.02;94.47
45523;BME280;31254;51.680;5.394;2022-12-05T11:21:11;102004.81;;;4.97;94.05
45523;BME280;31254;51.680;5.394;2022-12-05T11:23:38;102010.75;;;5.03;94.15
45523;BME280;31254;51.680;5.394;2022-12-05T11:26:20;102009.97;;;5.01;94.32
45523;BME280;31254;51.680;5.394;2022-12-05T11:28:58;101996.78;;;4.95;94.51
45523;BME280;31254;51.680;5.394;2022-12-05T11:31:30;101989.00;;;4.89;94.59
45523;BME280;31254;51.680;5.394;2022-12-05T11:34:20;102005.34;;;5.03;94.48
45523;BME280;31254;51.680;5.394;2022-12-05T11:37:03;102010.66;;;5.05;94.54
45523;BME280;31254;51.680;5.394;2022-12-05T11:39:31;102017.59;;;5.10;94.67
45523;BME280;31254;51.680;5.394;2022-12-05T11:53:47;102008.50;;;5.27;93.77
45523;BME280;31254;51.680;5.394;2022-12-05T12:19:24;102001.88;;;5.17;94.09
45523;BME280;31254;51.680;5.394;2022-12-05T12:33:41;102007.63;;;5.27;93.80
45523;BME280;31254;51.680;5.394;2022-12-05T12:36:17;102007.56;;;5.28;93.54
45523;BME280;31254;51.680;5.394;2022-12-05T12:42:02;102002.91;;;5.30;93.91
45523;BME280;31254;51.680;5.394;2022-12-05T12:47:10;101999.25;;;5.31;94.36
45523;BME280;31254;51.680;5.394;2022-12-05T12:49:53;101996.47;;;5.33;94.15
45523;BME280;31254;51.680;5.394;2022-12-05T12:52:29;101992.78;;;5.34;94.13
45523;BME280;31254;51.680;5.394;2022-12-05T12:58:10;101995.22;;;5.39;93.72
45523;BME280;31254;51.680;5.394;2022-12-05T13:06:03;101977.69;;;5.46;93.91
45523;BME280;31254;51.680;5.394;2022-12-05T13:08:52;101983.78;;;5.49;93.75
45523;BME280;31254;51.680;5.394;2022-12-05T13:11:21;101979.31;;;5.48;93.25
45523;BME280;31254;51.680;5.394;2022-12-05T13:13:57;101984.13;;;5.59;93.72
45523;BME280;31254;51.680;5.394;2022-12-05T13:17:10;101969.34;;;5.65;93.14
45523;BME280;31254;51.680;5.394;2022-12-05T13:19:56;101977.28;;;5.68;93.23
45523;BME280;31254;51.680;5.394;2022-12-05T13:22:34;101978.94;;;5.71;93.15
45523;BME280;31254;51.680;5.394;2022-12-05T13:25:17;101972.47;;;5.73;92.87
45523;BME280;31254;51.680;5.394;2022-12-05T13:28:04;101970.38;;;5.78;92.91
45523;BME280;31254;51.680;5.394;2022-12-05T13:30:37;101971.06;;;5.82;92.74
45523;BME280;31254;51.680;5.394;2022-12-05T13:33:29;101975.22;;;5.88;92.77
45523;BME280;31254;51.680;5.394;2022-12-05T13:36:29;101978.03;;;5.86;92.79
45523;BME280;31254;51.680;5.394;2022-12-05T13:39:36;101970.59;;;5.90;92.72
45523;BME280;31254;51.680;5.394;2022-12-05T13:42:32;101965.56;;;5.83;92.57
45523;BME280;31254;51.680;5.394;2022-12-05T13:45:08;101980.81;;;5.84;93.02
45523;BME280;31254;51.680;5.394;2022-12-05T13:48:21;101970.06;;;5.83;93.07
45523;BME280;31254;51.680;5.394;2022-12-05T13:51:11;101983.25;;;5.89;93.09
45523;BME280;31254;51.680;5.394;2022-12-05T13:54:12;101978.75;;;5.90;92.87
45523;BME280;31254;51.680;5.394;2022-12-05T13:56:58;101976.88;;;5.90;93.13
45523;BME280;31254;51.680;5.394;2022-12-05T14:00:19;101977.75;;;5.91;93.04
45523;BME280;31254;51.680;5.394;2022-12-05T14:02:55;101984.16;;;5.90;93.01
45523;BME280;31254;51.680;5.394;2022-12-05T14:05:39;101985.97;;;5.89;93.09
45523;BME280;31254;51.680;5.394;2022-12-05T14:15:45;101982.22;;;5.92;93.16
45523;BME280;31254;51.680;5.394;2022-12-05T14:21:08;101979.41;;;5.93;93.48
45523;BME280;31254;51.680;5.394;2022-12-05T14:26:27;101981.13;;;5.94;93.39
45523;BME280;31254;51.680;5.394;2022-12-05T14:34:28;101974.00;;;5.93;93.64
45523;BME280;31254;51.680;5.394;2022-12-05T14:37:02;101991.81;;;5.97;93.81
45523;BME280;31254;51.680;5.394;2022-12-05T14:39:48;101977.75;;;5.91;93.78
45523;BME280;31254;51.680;5.394;2022-12-05T14:42:52;101991.13;;;5.94;93.65
45523;BME280;31254;51.680;5.394;2022-12-05T14:45:36;101992.06;;;5.93;93.50
45523;BME280;31254;51.680;5.394;2022-12-05T14:48:35;101997.47;;;5.93;93.84
45523;BME280;31254;51.680;5.394;2022-12-05T14:54:07;101999.41;;;5.91;93.85
45523;BME280;31254;51.680;5.394;2022-12-05T14:56:59;101999.41;;;5.91;94.08
45523;BME280;31254;51.680;5.394;2022-12-05T14:59:54;101996.88;;;5.88;93.78
45523;BME280;31254;51.680;5.394;2022-12-05T15:02:44;101997.97;;;5.85;93.62
45523;BME280;31254;51.680;5.394;2022-12-05T15:05:32;101997.97;;;5.85;93.94
45523;BME280;31254;51.680;5.394;2022-12-05T15:08:02;101990.88;;;5.82;94.22
45523;BME280;31254;51.680;5.394;2022-12-05T15:10:37;102000.50;;;5.88;94.06
45523;BME280;31254;51.680;5.394;2022-12-05T15:13:18;102002.41;;;5.86;94.09
45523;BME280;31254;51.680;5.394;2022-12-05T15:26:37;101983.38;;;5.72;94.40
45523;BME280;31254;51.680;5.394;2022-12-05T15:29:31;102007.91;;;5.84;94.20
45523;BME280;31254;51.680;5.394;2022-12-05T15:32:12;102006.09;;;5.85;94.36
45523;BME280;31254;51.680;5.394;2022-12-05T15:35:05;102008.78;;;5.85;94.39
45523;BME280;31254;51.680;5.394;2022-12-05T15:40:49;102011.25;;;5.90;94.17
45523;BME280;31254;51.680;5.394;2022-12-05T15:43:32;102020.31;;;5.89;94.40
45523;BME280;31254;51.680;5.394;2022-12-05T15:46:21;102010.53;;;5.86;94.33
45523;BME280;31254;51.680;5.394;2022-12-05T15:48:54;102005.19;;;5.84;94.23
45523;BME280;31254;51.680;5.394;2022-12-05T15:51:31;102010.44;;;5.88;94.19
45523;BME280;31254;51.680;5.394;2022-12-05T15:54:07;102007.81;;;5.86;94.20
45523;BME280;31254;51.680;5.394;2022-12-05T15:56:57;102008.63;;;5.88;94.37
45523;BME280;31254;51.680;5.394;2022-12-05T15:59:39;102016.94;;;5.85;94.20
45523;BME280;31254;51.680;5.394;2022-12-05T16:04:50;102016.13;;;5.83;94.67
45523;BME280;31254;51.680;5.394;2022-12-05T16:07:20;102010.78;;;5.81;94.17
45523;BME280;31254;51.680;5.394;2022-12-05T16:09:48;102028.63;;;5.85;94.32
45523;BME280;31254;51.680;5.394;2022-12-05T16:12:32;102023.28;;;5.84;94.08
45523;BME280;31254;51.680;5.394;2022-12-05T16:15:04;102022.44;;;5.83;93.95
45523;BME280;31254;51.680;5.394;2022-12-05T16:17:40;102024.25;;;5.83;93.73